Time;durP1;ratioP1;P1;durP2;ratioP2;P2;SDS_P1;SDS_P2;PMS_P1;PMS_P2;Temp;Humidity;BMP_temperature;BMP_pressure;BME280_temperature;BME280_humidity;BME280_pressure;Samples;Min_cycle;Max_cycle;Signal;HPM_P1;HPM_P2
2022/12/02 00:01:46;;;;;;;10.88;5.30;;;;;;;2.73;77.58;95441.44;5050845;28;20072;-78
2022/12/02 00:04:20;;;;;;;7.85;4.95;;;;;;;3.33;78.11;95523.63;5032820;28;20466;-78
2022/12/02 00:06:46;;;;;;;9.82;4.45;;;;;;;3.53;77.91;95560.06;5050607;28;20484;-78
2022/12/02 00:09:21;;;;;;;8.48;5.47;;;;;;;3.26;78.05;95558.78;5051072;28;20415;-79
2022/12/02 00:11:47;;;;;;;9.63;4.65;;;;;;;3.39;78.08;95553.38;5033252;28;20048;-79
2022/12/02 00:14:20;;;;;;;8.80;4.72;;;;;;;3.45;77.63;95552.50;5033193;28;20051;-79
2022/12/02 00:16:46;;;;;;;7.25;4.35;;;;;;;2.89;77.84;95463.66;5049788;28;20044;-79
2022/12/02 00:19:11;;;;;;;6.10;3.88;;;;;;;3.49;78.14;95557.09;5032752;28;20041;-79
2022/12/02 00:21:37;;;;;;;8.15;4.53;;;;;;;3.07;77.82;95493.25;5032991;28;20622;-79
2022/12/02 00:24:02;;;;;;;9.68;5.00;;;;;;;3.00;78.44;95482.03;5050721;28;20562;-79
2022/12/02 00:26:28;;;;;;;10.38;5.05;;;;;;;2.79;78.24;95443.19;5049757;28;20037;-79
2022/12/02 00:28:53;;;;;;;8.73;5.38;;;;;;;2.45;78.19;95396.63;5050756;28;20116;-79
2022/12/02 00:31:19;;;;;;;16.30;6.13;;;;;;;2.51;78.43;95406.25;5032373;28;20040;-79
2022/12/02 00:33:44;;;;;;;14.80;7.13;;;;;;;3.14;78.47;95508.91;5032740;28;20098;-79
2022/12/02 00:36:09;;;;;;;12.82;6.18;;;;;;;3.46;78.46;95551.50;5031729;28;20053;-79
2022/12/02 00:38:35;;;;;;;16.23;8.10;;;;;;;3.32;78.53;95527.25;5032119;28;20146;-79
2022/12/02 00:41:00;;;;;;;13.02;7.25;;;;;;;3.36;79.25;95549.38;5050588;28;20530;-79
2022/12/02 00:48:53;;;;;;;12.10;6.30;;;;;;;3.04;79.16;95472.75;5050581;28;20047;-79
2022/12/02 00:51:19;;;;;;;9.10;5.32;;;;;;;2.94;79.55;95453.31;5050783;28;20029;-79
2022/12/02 00:53:44;;;;;;;13.90;6.00;;;;;;;2.80;79.61;95428.28;5050603;28;20045;-79
2022/12/02 00:56:09;;;;;;;9.85;5.90;;;;;;;3.49;79.69;95543.19;5049862;28;20068;-79
2022/12/02 00:58:35;;;;;;;6.63;5.00;;;;;;;3.45;79.77;95526.28;5050612;28;20064;-79
2022/12/02 01:01:00;;;;;;;7.97;5.25;;;;;;;3.31;79.97;95506.50;5032717;28;20029;-79
2022/12/02 01:03:26;;;;;;;14.57;5.65;;;;;;;3.33;79.98;95501.84;5032301;28;20037;-79
2022/12/02 01:05:52;;;;;;;7.93;4.57;;;;;;;3.60;79.63;95539.00;5032447;28;20037;-79
2022/12/02 01:08:18;;;;;;;9.68;4.90;;;;;;;3.33;80.27;95499.22;5032160;28;20195;-79
2022/12/02 01:10:43;;;;;;;8.15;4.28;;;;;;;3.64;80.05;95543.63;5032559;28;20132;-78
2022/12/02 01:13:09;;;;;;;7.78;4.82;;;;;;;3.11;79.52;95462.19;5032868;28;20072;-79
2022/12/02 01:15:34;;;;;;;6.72;3.75;;;;;;;3.19;79.81;95461.09;5032103;28;20053;-79
2022/12/02 01:18:00;;;;;;;6.88;4.32;;;;;;;3.07;79.49;95440.84;5050224;28;20041;-79
2022/12/02 01:20:25;;;;;;;8.13;4.03;;;;;;;2.63;79.98;95381.72;5050503;28;20029;-78
2022/12/02 01:22:51;;;;;;;11.18;5.30;;;;;;;3.18;79.53;95455.03;5050074;28;20033;-78
2022/12/02 01:25:16;;;;;;;6.65;4.00;;;;;;;3.64;79.52;95530.50;5032256;28;20050;-78
2022/12/02 01:27:42;;;;;;;6.47;4.15;;;;;;;3.28;79.56;95485.97;5050560;28;20037;-79
2022/12/02 01:30:08;;;;;;;7.85;4.88;;;;;;;3.60;79.85;95524.06;5050103;28;20025;-79
2022/12/02 01:32:33;;;;;;;7.18;3.85;;;;;;;3.63;79.66;95528.09;5050413;28;20048;-79
2022/12/02 01:34:59;;;;;;;7.95;4.60;;;;;;;3.28;79.81;95473.66;5049817;28;20036;-79
2022/12/02 01:37:24;;;;;;;7.60;4.57;;;;;;;3.64;79.87;95535.75;5032281;28;20033;-78
2022/12/02 01:39:50;;;;;;;7.10;4.30;;;;;;;3.20;79.89;95460.06;5032026;28;20037;-79
2022/12/02 01:42:15;;;;;;;9.25;4.07;;;;;;;3.10;79.88;95442.22;5032445;28;20074;-79
2022/12/02 01:44:41;;;;;;;9.73;4.85;;;;;;;3.56;79.88;95514.25;5054232;28;20045;-79
2022/12/02 01:47:06;;;;;;;8.75;4.35;;;;;;;3.07;79.57;95435.59;5035701;28;20067;-79
2022/12/02 01:49:32;;;;;;;9.60;5.07;;;;;;;3.42;79.64;95490.03;5053724;28;20044;-79
2022/12/02 01:51:57;;;;;;;6.85;3.92;;;;;;;3.68;79.28;95531.63;5053847;28;20045;-79
2022/12/02 01:54:23;;;;;;;9.65;4.93;;;;;;;3.69;78.96;95540.31;5053536;28;20059;-79
2022/12/02 01:56:48;;;;;;;7.80;4.53;;;;;;;3.10;79.24;95442.22;5053305;28;20040;-79
2022/12/02 01:59:16;;;;;;;8.23;4.60;;;;;;;3.59;79.12;95517.22;5033949;28;20037;-79
2022/12/02 02:01:42;;;;;;;7.97;4.35;;;;;;;2.80;78.84;95397.66;5053124;28;20033;-79
2022/12/02 02:04:09;;;;;;;10.48;4.47;;;;;;;2.78;79.31;95404.91;5034687;28;20041;-79
2022/12/02 02:06:41;;;;;;;9.55;4.93;;;;;;;1.92;79.26;95279.41;5052840;28;20041;-79
2022/12/02 02:09:08;;;;;;;8.48;4.30;;;;;;;3.30;80.40;95542.38;5052948;28;20047;-79
2022/12/02 02:11:35;;;;;;;8.88;4.38;;;;;;;2.49;80.01;95422.16;5053067;28;20068;-79
2022/12/02 02:14:03;;;;;;;7.22;4.50;;;;;;;2.62;80.70;95484.84;5034750;28;20518;-79
2022/12/02 02:16:29;;;;;;;7.30;4.15;;;;;;;2.40;80.49;95435.75;5052535;28;20182;-79
2022/12/02 02:18:55;;;;;;;8.95;4.53;;;;;;;1.74;80.13;95332.50;5035036;28;20443;-79
2022/12/02 02:21:35;;;;;;;7.32;4.10;;;;;;;2.57;80.25;95436.78;5052369;28;20106;-79
2022/12/02 02:24:00;;;;;;;9.02;4.25;;;;;;;3.32;80.38;95545.59;5033906;28;20050;-79
2022/12/02 02:26:26;;;;;;;7.38;4.35;;;;;;;2.96;80.62;95472.22;5034778;28;20090;-79
2022/12/02 02:28:52;;;;;;;15.38;6.32;;;;;;;3.30;80.34;95524.03;5034654;28;20040;-79
2022/12/02 02:31:18;;;;;;;9.30;5.45;;;;;;;2.50;80.53;95397.59;5034647;28;20445;-79
2022/12/02 02:33:44;;;;;;;11.52;6.00;;;;;;;2.06;81.13;95356.75;5052885;28;20049;-79
2022/12/02 02:36:09;;;;;;;12.85;5.68;;;;;;;3.32;81.01;95552.66;5052402;28;20250;-79
2022/12/02 02:38:36;;;;;;;13.35;6.43;;;;;;;3.04;81.13;95517.28;5034649;28;20080;-78
2022/12/02 02:41:02;;;;;;;11.55;5.32;;;;;;;3.15;80.92;95559.50;5052225;28;20033;-78
2022/12/02 02:43:29;;;;;;;9.93;6.03;;;;;;;3.00;81.31;95565.88;5052690;28;20400;-81
2022/12/02 02:45:57;;;;;;;13.32;5.93;;;;;;;2.43;81.50;95456.25;5042492;28;20060;-80
2022/12/02 02:48:23;;;;;;;9.63;5.55;;;;;;;2.48;81.42;95457.22;5051023;28;20044;-81
2022/12/02 02:50:49;;;;;;;8.57;5.50;;;;;;;2.27;81.43;95447.94;5033271;28;20033;-80
2022/12/02 02:53:17;;;;;;;8.43;5.38;;;;;;;2.37;81.55;95462.34;5050733;28;20045;-81
2022/12/02 02:55:42;;;;;;;11.00;5.97;;;;;;;2.35;81.06;95438.22;5050781;28;20040;-80
2022/12/02 02:58:13;;;;;;;11.88;6.65;;;;;;;3.20;81.18;95564.91;5033040;28;20052;-81
2022/12/02 03:00:46;;;;;;;11.40;6.03;;;;;;;2.68;80.84;95470.91;5065814;28;20127;-81
2022/12/02 03:03:15;;;;;;;14.70;7.80;;;;;;;2.13;80.89;95416.88;5051088;28;20123;-81
2022/12/02 03:05:40;;;;;;;13.80;6.70;;;;;;;3.23;81.04;95575.75;5050389;28;20045;-81
2022/12/02 03:08:07;;;;;;;12.00;6.10;;;;;;;2.70;80.78;95497.69;5050733;28;20048;-80
2022/12/02 03:10:32;;;;;;;10.40;6.60;;;;;;;2.60;80.97;95505.22;5032847;28;20395;-81
2022/12/02 03:12:58;;;;;;;12.05;5.93;;;;;;;2.91;81.11;95540.97;5050148;28;20040;-81
2022/12/02 03:15:27;;;;;;;9.40;5.97;;;;;;;2.33;81.16;95459.34;5050581;28;20040;-80
2022/12/02 03:17:53;;;;;;;11.45;5.90;;;;;;;2.40;80.85;95464.53;5050710;28;20084;-81
2022/12/02 03:20:20;;;;;;;9.95;5.97;;;;;;;2.69;80.77;95518.84;5051096;28;20547;-81
2022/12/02 03:22:46;;;;;;;8.52;5.20;;;;;;;2.93;80.67;95562.53;5045342;28;20535;-81
2022/12/02 03:25:12;;;;;;;10.32;6.45;;;;;;;2.29;81.29;95482.53;5050029;28;20127;-81
2022/12/02 03:27:38;;;;;;;9.32;6.05;;;;;;;2.67;81.56;95549.69;5050570;28;20423;-81
2022/12/02 03:30:04;;;;;;;11.07;6.10;;;;;;;2.11;81.32;95453.72;5032171;28;20086;-81
2022/12/02 03:32:30;;;;;;;10.77;6.30;;;;;;;2.68;81.40;95531.13;5050341;28;20045;-81
2022/12/02 03:34:55;;;;;;;11.43;6.93;;;;;;;3.09;81.21;95580.31;5031900;28;20048;-81
2022/12/02 03:37:22;;;;;;;10.90;5.97;;;;;;;2.66;80.55;95512.22;5032472;28;20376;-81
2022/12/02 03:39:48;;;;;;;11.10;6.38;;;;;;;2.36;80.47;95476.47;5050090;28;20055;-81
2022/12/02 03:42:13;;;;;;;11.60;6.70;;;;;;;2.66;80.42;95520.09;5050048;28;20048;-81
2022/12/02 03:44:39;;;;;;;14.20;6.38;;;;;;;2.45;80.39;95509.97;5050293;28;20122;-81
2022/12/02 03:47:05;;;;;;;12.90;7.45;;;;;;;2.54;80.06;95515.75;5049658;28;20419;-81
2022/12/02 03:49:32;;;;;;;18.33;8.23;;;;;;;2.66;80.80;95561.19;5049878;28;20095;-81
2022/12/02 03:51:58;;;;;;;14.75;7.85;;;;;;;2.84;80.76;95582.16;5049682;28;20361;-81
2022/12/02 03:54:24;;;;;;;16.58;8.18;;;;;;;2.31;80.02;95477.88;5065061;28;20052;-81
2022/12/02 03:56:49;;;;;;;15.73;6.95;;;;;;;3.06;80.49;95587.78;5051006;28;20068;-81
2022/12/02 03:59:26;;;;;;;11.93;6.45;;;;;;;2.99;80.38;95594.91;5044957;28;20436;-81
2022/12/02 04:01:51;;;;;;;13.95;7.30;;;;;;;2.28;79.92;95491.41;5050226;28;20076;-81
2022/12/02 04:04:16;;;;;;;9.88;5.82;;;;;;;2.60;79.74;95538.44;5031206;28;20183;-81
2022/12/02 04:06:42;;;;;;;9.77;5.53;;;;;;;1.91;79.88;95405.97;5048926;28;20044;-81
2022/12/02 04:09:07;;;;;;;8.65;5.75;;;;;;;3.15;79.99;95602.22;5049629;28;20037;-81
2022/12/02 04:11:33;;;;;;;12.95;5.72;;;;;;;3.15;79.96;95599.59;5049530;28;20038;-81
2022/12/02 04:13:58;;;;;;;9.80;5.93;;;;;;;2.36;79.72;95481.69;5031298;28;20064;-81
2022/12/02 04:16:24;;;;;;;12.70;6.30;;;;;;;2.26;79.08;95443.72;5031478;28;20041;-81
2022/12/02 04:18:49;;;;;;;10.18;5.97;;;;;;;3.35;79.16;95597.59;5031783;28;20423;-81
2022/12/02 04:21:14;;;;;;;10.80;6.28;;;;;;;2.86;79.44;95527.75;5049173;28;20426;-81
2022/12/02 04:23:40;;;;;;;11.43;6.38;;;;;;;2.81;79.78;95519.75;5049216;28;20048;-81
2022/12/02 04:26:05;;;;;;;11.77;6.57;;;;;;;2.89;79.47;95540.41;5049325;28;20073;-81
2022/12/02 04:28:31;;;;;;;10.88;6.78;;;;;;;2.45;79.74;95454.19;5049693;28;20068;-81
2022/12/02 04:30:57;;;;;;;9.23;6.50;;;;;;;2.68;79.43;95498.91;5031622;28;20033;-81
2022/12/02 04:33:23;;;;;;;12.48;7.03;;;;;;;2.19;79.35;95434.31;5031116;28;20033;-81
2022/12/02 04:35:48;;;;;;;14.18;6.70;;;;;;;3.04;79.68;95555.78;5014843;28;20044;-82
2022/12/02 04:38:14;;;;;;;14.10;7.25;;;;;;;2.76;79.46;95495.19;5049312;28;20138;-81
2022/12/02 04:40:39;;;;;;;11.13;6.95;;;;;;;1.89;79.07;95400.97;5049566;28;20041;-81
2022/12/02 04:43:05;;;;;;;14.30;7.93;;;;;;;2.69;79.35;95482.16;5049512;28;20123;-81
2022/12/02 04:45:30;;;;;;;14.23;8.38;;;;;;;2.29;79.23;95419.72;5030507;28;20033;-81
2022/12/02 04:47:56;;;;;;;12.02;6.88;;;;;;;2.96;78.87;95519.41;5049025;28;20041;-81
2022/12/02 04:50:21;;;;;;;17.08;7.70;;;;;;;2.99;78.40;95522.38;5031011;28;20494;-81
2022/12/02 04:52:46;;;;;;;16.60;9.02;;;;;;;2.52;78.64;95439.22;5031247;28;20068;-81
2022/12/02 04:55:12;;;;;;;13.20;7.60;;;;;;;2.96;79.14;95514.16;5030493;28;20802;-81
2022/12/02 04:57:37;;;;;;;12.93;7.47;;;;;;;3.02;78.92;95548.16;5031145;28;20056;-81
2022/12/02 05:00:04;;;;;;;14.60;7.43;;;;;;;3.63;79.06;95609.41;5049185;28;20116;-81
2022/12/02 05:02:30;;;;;;;17.92;9.85;;;;;;;3.19;79.31;95545.75;5048896;28;20056;-85
2022/12/02 05:04:55;;;;;;;16.60;8.10;;;;;;;2.69;78.59;95456.78;5030353;28;20415;-81
2022/12/02 05:07:20;;;;;;;15.10;7.70;;;;;;;3.05;78.52;95521.47;5049096;28;20431;-81
2022/12/02 05:09:46;;;;;;;14.82;6.85;;;;;;;3.21;78.05;95558.63;5048131;28;20049;-81
2022/12/02 05:12:11;;;;;;;17.83;7.15;;;;;;;3.62;78.72;95616.47;5043661;28;20056;-81
2022/12/02 05:14:36;;;;;;;12.98;7.53;;;;;;;2.94;78.61;95508.31;5043962;28;20045;-81
2022/12/02 05:17:02;;;;;;;14.00;8.30;;;;;;;2.77;79.11;95492.38;5029460;28;20036;-81
2022/12/02 05:19:27;;;;;;;12.68;6.63;;;;;;;3.05;78.72;95528.56;5031359;28;20052;-82
2022/12/02 05:21:53;;;;;;;14.48;7.50;;;;;;;2.79;79.21;95494.78;5030818;28;20041;-82
2022/12/02 05:24:18;;;;;;;13.82;7.50;;;;;;;3.45;78.82;95603.13;5044070;28;20388;-82
2022/12/02 05:26:44;;;;;;;16.27;8.00;;;;;;;2.95;79.02;95515.97;5046421;28;20045;-82
2022/12/02 05:29:09;;;;;;;16.08;8.00;;;;;;;3.02;79.21;95521.94;5033843;28;20056;-82
2022/12/02 05:31:34;;;;;;;13.57;8.15;;;;;;;2.63;78.68;95473.38;5038332;28;20063;-83
2022/12/02 05:34:00;;;;;;;12.95;8.68;;;;;;;2.36;78.79;95445.06;5037438;28;20044;-82
2022/12/02 05:36:25;;;;;;;14.35;8.60;;;;;;;2.69;78.86;95482.97;5039902;28;20857;-81
2022/12/02 05:38:51;;;;;;;14.55;9.23;;;;;;;2.83;78.88;95501.97;5043946;28;20052;-82
2022/12/02 05:41:16;;;;;;;14.68;8.50;;;;;;;2.85;78.81;95502.56;5022774;28;20708;-82
2022/12/02 05:43:42;;;;;;;17.35;9.02;;;;;;;3.66;78.79;95625.47;5026308;28;20045;-81
2022/12/02 05:46:19;;;;;;;12.98;7.78;;;;;;;3.37;78.51;95584.25;5041306;28;20132;-82
2022/12/02 05:48:47;;;;;;;14.35;7.75;;;;;;;3.70;79.10;95631.09;5045411;28;20039;-82
2022/12/02 05:51:15;;;;;;;17.13;8.98;;;;;;;3.71;78.84;95632.72;5027426;28;20086;-82
2022/12/02 05:53:43;;;;;;;18.85;8.82;;;;;;;3.59;79.46;95623.94;5046136;28;20136;-83
2022/12/02 05:56:27;;;;;;;13.05;7.80;;;;;;;3.24;78.91;95566.06;5023553;28;20080;-82
2022/12/02 05:59:00;;;;;;;13.70;8.00;;;;;;;2.97;79.20;95523.63;5021267;28;20098;-82
2022/12/02 06:01:32;;;;;;;16.52;8.63;;;;;;;3.64;79.90;95648.53;5040199;28;21788;-82
2022/12/02 06:03:58;;;;;;;19.73;9.63;;;;;;;3.26;79.36;95569.28;5042655;28;20041;-83
2022/12/02 06:06:28;;;;;;;20.98;11.48;;;;;;;3.32;79.54;95584.94;5020294;28;20052;-82
2022/12/02 06:08:55;;;;;;;18.35;10.52;;;;;;;3.70;79.97;95642.41;5043184;28;20036;-82
2022/12/02 06:11:27;;;;;;;18.70;10.52;;;;;;;3.72;79.91;95648.25;5039001;28;20708;-85
2022/12/02 06:13:57;;;;;;;21.00;10.48;;;;;;;2.35;79.59;95457.34;5053673;28;20036;-82
2022/12/02 06:16:26;;;;;;;21.27;9.77;;;;;;;3.53;80.14;95622.22;5021744;28;20072;-82
2022/12/02 06:18:52;;;;;;;18.30;10.55;;;;;;;3.75;80.06;95674.00;5021724;28;20086;-83
2022/12/02 06:21:20;;;;;;;19.88;10.23;;;;;;;3.71;80.42;95661.56;5036041;28;20109;-82
2022/12/02 06:23:48;;;;;;;23.25;13.02;;;;;;;2.87;79.86;95529.34;5033211;28;20520;-81
2022/12/02 06:26:16;;;;;;;29.20;12.75;;;;;;;3.00;79.90;95547.56;5016791;28;20115;-81
2022/12/02 06:28:44;;;;;;;22.27;11.70;;;;;;;3.47;79.67;95627.31;5038987;28;20535;-81
2022/12/02 06:31:15;;;;;;;18.98;10.38;;;;;;;2.90;80.00;95547.22;5021512;28;20507;-81
2022/12/02 06:33:42;;;;;;;16.65;9.70;;;;;;;2.92;80.01;95542.59;5022782;28;20396;-81
2022/12/02 06:36:14;;;;;;;20.80;11.38;;;;;;;3.87;80.00;95672.28;5021977;28;20118;-81
2022/12/02 06:38:50;;;;;;;;;;;;;;;3.96;80.00;95670.16;5038270;28;20033;-83
2022/12/02 06:41:20;;;;;;;22.00;12.05;;;;;;;4.00;79.81;95676.56;5037641;28;19932;-83
2022/12/02 06:45:03;;;;;;;32.17;13.70;;;;;;;3.36;79.27;95559.06;5037438;28;20037;-82
2022/12/02 06:46:35;;;;;;;25.42;12.75;;;;;;;4.04;78.89;95669.88;5037768;28;20847;-82
2022/12/02 06:49:24;;;;;;;29.52;14.20;;;;;;;3.34;79.18;95618.78;5037398;28;20140;-82
2022/12/02 06:51:56;;;;;;;24.63;12.98;;;;;;;3.91;79.47;95682.31;5036021;28;20040;-82
2022/12/02 06:54:27;;;;;;;22.98;12.57;;;;;;;2.80;78.79;95544.34;5052228;28;20045;-81
2022/12/02 06:56:54;;;;;;;28.30;14.45;;;;;;;3.08;78.18;95564.81;5038649;28;20075;-84
2022/12/02 06:59:22;;;;;;;29.13;13.73;;;;;;;2.66;78.30;95525.31;5054481;28;20053;-82
2022/12/02 07:01:51;;;;;;;30.08;14.73;;;;;;;3.29;78.07;95608.13;5038340;28;20053;-82
2022/12/02 07:04:25;;;;;;;33.13;15.95;;;;;;;3.74;77.51;95682.91;5026975;28;20041;-83
2022/12/02 07:06:54;;;;;;;22.23;12.38;;;;;;;3.14;77.49;95573.59;5024701;28;20412;-82
2022/12/02 07:09:41;;;;;;;33.70;14.98;;;;;;;3.65;78.72;95686.06;5023459;28;20075;-82
2022/12/02 07:12:22;;;;;;;27.42;14.35;;;;;;;1.90;78.75;95418.28;5018952;28;20041;-84
2022/12/02 07:14:50;;;;;;;25.50;12.93;;;;;;;3.46;77.53;95609.97;5008425;28;20044;-83
2022/12/02 07:17:28;;;;;;;23.40;13.77;;;;;;;3.04;77.56;95551.34;5031363;28;20055;-82
2022/12/02 07:20:14;;;;;;;25.25;13.93;;;;;;;3.50;77.62;95602.50;5018378;28;20054;-83
2022/12/02 07:22:43;;;;;;;28.50;14.48;;;;;;;4.03;77.07;95683.22;5014478;28;20715;-82
2022/12/02 07:25:08;;;;;;;25.80;12.77;;;;;;;4.00;77.57;95687.06;5051127;28;20079;-82
2022/12/02 07:27:38;;;;;;;32.55;15.63;;;;;;;4.02;77.48;95692.09;5018132;28;20139;-82
2022/12/02 07:30:19;;;;;;;31.65;15.35;;;;;;;4.07;77.45;95686.97;5017567;28;20051;-81
2022/12/02 07:32:44;;;;;;;32.33;16.70;;;;;;;4.18;77.23;95687.06;5035043;28;20052;-82
2022/12/02 07:35:10;;;;;;;32.85;17.35;;;;;;;3.94;77.14;95637.28;5033548;28;20041;-81
2022/12/02 07:37:35;;;;;;;34.78;18.17;;;;;;;3.86;76.39;95638.38;5016346;28;20766;-82
2022/12/02 07:40:01;;;;;;;35.33;17.35;;;;;;;4.22;76.58;95687.41;5015732;28;20045;-81
2022/12/02 07:42:27;;;;;;;26.55;15.55;;;;;;;4.29;77.06;95696.00;5037149;28;20562;-82
2022/12/02 07:44:53;;;;;;;30.25;16.30;;;;;;;3.67;76.21;95585.13;5036021;28;20122;-82
2022/12/02 07:47:20;;;;;;;35.83;18.20;;;;;;;3.84;76.42;95635.16;5033657;28;20140;-83
2022/12/02 07:49:45;;;;;;;33.22;17.75;;;;;;;4.02;77.33;95669.28;5021193;28;20907;-83
2022/12/02 07:52:11;;;;;;;30.08;16.30;;;;;;;3.03;76.70;95551.56;5029650;28;20131;-83
2022/12/02 07:54:36;;;;;;;29.27;16.70;;;;;;;3.60;78.45;95662.28;5032273;28;20140;-83
2022/12/02 07:57:02;;;;;;;34.42;17.33;;;;;;;3.57;78.23;95647.78;5017166;28;20129;-85
2022/12/02 07:59:27;;;;;;;33.05;17.23;;;;;;;2.69;77.76;95495.25;5012094;28;20045;-83
2022/12/02 08:01:53;;;;;;;35.60;19.08;;;;;;;3.32;77.69;95582.31;5036289;28;20040;-83
2022/12/02 08:04:18;;;;;;;33.42;19.40;;;;;;;4.09;77.05;95701.50;5020696;28;20051;-86
2022/12/02 08:06:44;;;;;;;41.65;21.13;;;;;;;2.66;78.25;95480.00;5017828;28;20111;-83
2022/12/02 08:09:09;;;;;;;40.65;20.73;;;;;;;3.18;78.12;95572.97;5022132;28;20068;-87
2022/12/02 08:11:35;;;;;;;40.83;21.58;;;;;;;3.65;77.80;95683.44;5028675;28;20045;-83
2022/12/02 08:14:00;;;;;;;40.15;20.90;;;;;;;3.58;77.85;95633.66;5017457;28;20486;-82
2022/12/02 08:16:26;;;;;;;48.90;25.60;;;;;;;4.09;77.48;95704.13;5012857;28;20048;-82
2022/12/02 08:18:51;;;;;;;41.60;23.58;;;;;;;4.28;77.44;95723.28;5046535;28;20152;-82
2022/12/02 08:21:17;;;;;;;37.33;20.95;;;;;;;4.20;77.22;95697.31;5032402;28;20044;-82
2022/12/02 08:23:42;;;;;;;34.10;15.80;;;;;;;3.94;77.36;95671.41;5017519;28;20041;-82
2022/12/02 08:26:07;;;;;;;29.92;15.70;;;;;;;3.27;77.49;95607.56;5015386;28;20047;-81
2022/12/02 08:28:33;;;;;;;34.13;16.88;;;;;;;4.00;78.52;95717.75;5016658;28;20681;-81
2022/12/02 08:30:58;;;;;;;33.97;16.23;;;;;;;3.59;77.75;95632.63;5011174;28;20051;-82
2022/12/02 08:33:24;;;;;;;44.72;18.58;;;;;;;4.28;77.27;95718.03;5033263;28;20044;-81
2022/12/02 08:35:49;;;;;;;39.75;19.20;;;;;;;3.58;77.47;95614.50;5035176;28;20048;-82
2022/12/02 08:38:15;;;;;;;32.47;17.52;;;;;;;3.51;77.31;95595.44;5016581;28;20118;-82
2022/12/02 08:40:40;;;;;;;41.78;17.17;;;;;;;3.57;75.83;95612.91;5035748;28;20076;-81
2022/12/02 08:43:05;;;;;;;39.55;16.95;;;;;;;4.35;76.56;95724.00;5035383;28;20049;-82
2022/12/02 08:45:31;;;;;;;34.58;16.35;;;;;;;3.78;77.48;95668.34;5034309;28;20040;-81
2022/12/02 08:47:56;;;;;;;43.50;18.92;;;;;;;3.25;76.45;95575.53;5032651;28;20045;-81
2022/12/02 08:50:22;;;;;;;36.58;18.15;;;;;;;4.12;76.62;95708.13;5015205;28;20056;-81
2022/12/02 08:52:47;;;;;;;35.80;18.75;;;;;;;3.50;76.53;95620.84;5039343;28;20076;-83
2022/12/02 08:55:12;;;;;;;45.40;19.92;;;;;;;3.49;76.83;95601.69;5013497;28;20032;-83
2022/12/02 08:57:38;;;;;;;45.60;19.45;;;;;;;3.52;75.89;95625.84;5036997;28;20056;-86
2022/12/02 09:00:06;;;;;;;44.65;18.50;;;;;;;4.01;76.29;95675.53;5035195;28;20048;-83
2022/12/02 09:02:31;;;;;;;42.45;19.60;;;;;;;4.37;76.24;95739.53;5021243;28;20160;-82
2022/12/02 09:04:57;;;;;;;62.40;19.85;;;;;;;4.33;76.81;95736.56;5036076;28;20044;-82
2022/12/02 09:07:22;;;;;;;50.45;21.83;;;;;;;4.20;77.48;95699.94;5024688;28;20508;-87
2022/12/02 09:09:47;;;;;;;46.00;21.13;;;;;;;4.28;77.21;95694.38;5019998;28;20049;-84
2022/12/02 09:12:13;;;;;;;44.05;22.25;;;;;;;3.05;76.42;95512.84;5034704;28;20048;-83
2022/12/02 09:14:38;;;;;;;41.35;20.23;;;;;;;4.12;76.18;95658.28;5039649;28;20524;-85
2022/12/02 09:17:04;;;;;;;46.80;20.40;;;;;;;4.60;75.90;95702.88;5038519;28;20041;-89
2022/12/02 09:19:29;;;;;;;50.90;20.83;;;;;;;4.38;76.89;95693.88;5025211;28;20045;-86
2022/12/02 09:21:55;;;;;;;56.30;22.23;;;;;;;3.98;76.89;95620.06;5029178;28;20204;-87
2022/12/02 09:24:20;;;;;;;49.35;22.30;;;;;;;4.44;77.06;95685.91;5041323;28;20052;-85
2022/12/02 09:26:45;;;;;;;50.05;21.73;;;;;;;3.17;75.59;95470.97;5044074;28;20045;-83
2022/12/02 09:29:11;;;;;;;45.45;22.15;;;;;;;4.40;75.82;95626.19;5024681;28;20626;-85
2022/12/02 09:31:36;;;;;;;43.58;22.38;;;;;;;4.35;75.41;95611.06;5039361;28;20045;-85
2022/12/02 09:34:02;;;;;;;46.58;21.85;;;;;;;4.64;75.25;95670.69;5027836;28;20123;-88
2022/12/02 09:36:27;;;;;;;49.10;22.48;;;;;;;4.39;75.54;95614.88;5025849;28;20656;-89
2022/12/02 09:38:52;;;;;;;54.30;22.95;;;;;;;4.42;74.90;95618.88;5032125;28;20044;-87
2022/12/02 09:41:18;;;;;;;47.22;21.92;;;;;;;4.15;75.22;95552.81;5061447;28;20458;-85
2022/12/02 09:43:43;;;;;;;52.10;21.92;;;;;;;4.97;75.54;95659.66;5046223;28;20526;-89
2022/12/02 09:46:09;;;;;;;44.08;20.40;;;;;;;4.62;75.44;95601.00;5026380;28;20056;-86
2022/12/02 09:48:36;;;;;;;60.38;21.10;;;;;;;4.95;75.82;95645.16;5043494;28;20057;-84
2022/12/02 09:51:01;;;;;;;41.95;21.13;;;;;;;4.78;75.14;95623.19;5044296;28;20502;-86
2022/12/02 09:53:37;;;;;;;56.58;22.30;;;;;;;5.27;76.26;95706.91;5043138;28;20041;-88
2022/12/02 09:56:03;;;;;;;62.40;23.35;;;;;;;4.72;74.77;95589.94;5045310;28;20467;-86
2022/12/02 09:58:28;;;;;;;45.80;20.65;;;;;;;5.14;74.87;95630.06;5028255;28;20053;-88
2022/12/02 10:00:54;;;;;;;58.22;22.88;;;;;;;4.25;75.00;95519.75;5044941;28;20673;-88
2022/12/02 10:03:25;;;;;;;56.15;23.08;;;;;;;5.29;75.73;95710.13;5056044;28;20610;-85
2022/12/02 10:05:52;;;;;;;50.50;22.88;;;;;;;4.75;75.33;95603.41;5055113;28;20040;-87
2022/12/02 10:08:21;;;;;;;65.13;22.90;;;;;;;5.08;75.13;95639.69;5059280;28;20040;-87
2022/12/02 10:10:47;;;;;;;57.58;25.95;;;;;;;5.33;75.26;95658.69;5031007;28;20887;-86
2022/12/02 10:13:18;;;;;;;51.10;22.83;;;;;;;5.23;74.86;95642.66;5044327;28;20047;-87
2022/12/02 10:15:44;;;;;;;50.58;23.70;;;;;;;5.61;74.66;95694.00;5031124;28;20064;-89
2022/12/02 10:18:16;;;;;;;66.13;24.38;;;;;;;5.36;74.47;95679.25;5031222;28;20491;-87
2022/12/02 10:20:42;;;;;;;54.88;24.13;;;;;;;5.09;74.63;95603.69;5029900;28;20061;-88
2022/12/02 10:23:22;;;;;;;56.55;22.98;;;;;;;2.30;73.42;95136.06;5041779;28;20134;-87
2022/12/02 10:26:12;;;;;;;56.13;23.30;;;;;;;5.88;73.85;95689.06;5062278;28;20041;-87
2022/12/02 10:28:39;;;;;;;53.50;24.23;;;;;;;5.40;72.93;95625.16;5030979;28;20072;-88
2022/12/02 10:31:21;;;;;;;49.97;24.45;;;;;;;5.38;73.34;95595.66;5053511;28;20041;-89
2022/12/02 10:33:55;;;;;;;55.67;23.73;;;;;;;6.02;73.49;95688.63;5073703;28;20207;-88
2022/12/02 10:36:34;;;;;;;58.03;26.48;;;;;;;6.03;73.74;95689.41;5055057;28;20041;-88
2022/12/02 10:39:15;;;;;;;52.65;24.02;;;;;;;5.40;74.14;95584.91;5027254;28;20132;-88
2022/12/02 10:41:41;;;;;;;61.60;26.23;;;;;;;5.18;74.09;95562.88;5032479;28;20942;-89
2022/12/02 10:44:16;;;;;;;55.28;25.50;;;;;;;4.98;74.02;95529.03;5046077;28;20041;-88
2022/12/02 10:46:42;;;;;;;48.92;25.85;;;;;;;5.52;73.63;95629.59;5049128;28;20169;-87
2022/12/02 10:49:30;;;;;;;63.90;27.40;;;;;;;5.80;74.60;95687.56;5047860;28;20174;-87
2022/12/02 10:52:01;;;;;;;58.33;26.52;;;;;;;4.83;73.82;95523.44;5026877;28;20599;-88
2022/12/02 10:54:31;;;;;;;60.88;27.05;;;;;;;5.46;73.45;95596.34;5026833;28;20033;-85
2022/12/02 10:56:58;;;;;;;64.43;28.38;;;;;;;5.86;74.12;95683.25;5045886;28;20406;-86
2022/12/02 10:59:27;;;;;;;63.45;26.33;;;;;;;3.37;73.04;95315.03;5029266;28;20944;-88
2022/12/02 11:01:53;;;;;;;60.58;27.83;;;;;;;3.71;74.54;95365.97;5033361;28;20429;-88
2022/12/02 11:04:19;;;;;;;63.85;26.95;;;;;;;5.39;75.57;95593.84;5031162;28;20041;-88
2022/12/02 11:06:46;;;;;;;60.75;28.63;;;;;;;4.08;74.72;95382.31;5049676;28;20036;-88
2022/12/02 11:09:21;;;;;;;55.55;26.95;;;;;;;5.10;73.88;95544.81;5067801;28;20100;-87
2022/12/02 11:11:50;;;;;;;56.17;27.80;;;;;;;6.07;73.83;95693.97;5052125;28;20032;-90
2022/12/02 11:14:44;;;;;;;59.92;28.00;;;;;;;6.13;74.03;95684.34;5033885;28;20108;-87
2022/12/02 11:18:07;;;;;;;79.85;29.52;;;;;;;3.79;74.27;95328.91;5056207;28;20048;-89
2022/12/02 11:20:44;;;;;;;67.85;30.40;;;;;;;5.13;74.64;95541.72;5040581;28;20059;-87
2022/12/02 11:27:22;;;;;;;57.47;29.25;;;;;;;6.05;74.79;95696.03;5037411;28;20033;-86
2022/12/02 11:30:03;;;;;;;75.03;31.80;;;;;;;5.25;74.36;95595.91;5026166;28;20044;-87
2022/12/02 11:32:37;;;;;;;;;;;;;;;5.91;75.27;95697.31;5039452;28;20041;-85
2022/12/02 11:35:22;;;;;;;66.85;30.90;;;;;;;4.94;74.79;95541.84;5042475;28;19920;-86
2022/12/02 11:37:48;;;;;;;62.03;30.50;;;;;;;4.84;74.48;95506.66;5026136;28;20047;-85
2022/12/02 11:40:16;;;;;;;78.60;31.85;;;;;;;6.17;74.30;95702.09;5046253;28;20041;-85
2022/12/02 11:42:45;;;;;;;74.35;31.10;;;;;;;3.75;74.46;95345.31;5039490;28;20138;-86
2022/12/02 11:45:17;;;;;;;64.55;31.38;;;;;;;5.96;75.20;95699.25;5028837;28;20179;-85